Terminal Aerodrome Forecast
Issued by NWS Cleveland, OH

Home | Current Version | Previous Version | Graphics & Text | Print | Product List | Glossary On
Versions: 1 2 3 4 5 6 7 8 9 10 11 12 13 14 15 16 17 18 19 20 21
382
FTUS41 KCLE 102208 AAA
TAFCAK
TAF AMD
KCAK 102208Z 1022/1118 28012KT 1/4SM +SN OVC006
      TEMPO 1022/1023 1SM -SHSN OVC015
     FM102300 27015G22KT 2SM -SHSN OVC015
      TEMPO 1023/1101 3/4SM -SHSN OVC008
     FM110400 27015KT 3SM -SHSN BKN015 OVC025
     FM111000 30010KT P6SM BKN025=

USA.gov is the U.S. government's official web portal to all federal, state and local government web resources and services.